Time;durP1;ratioP1;P1;durP2;ratioP2;P2;SDS_P1;SDS_P2;PMS_P1;PMS_P2;Temp;Humidity;BMP_temperature;BMP_pressure;BME280_temperature;BME280_humidity;BME280_pressure;Samples;Min_cycle;Max_cycle;Signal;HPM_P1;HPM_P2
2022/04/22 00:00:51;;;;;;;;;2.50;2.50;;;;;19.88;46.25;101078.69;5093672;28;8796;-69
2022/04/22 00:03:17;;;;;;;;;1.75;1.75;;;;;19.86;46.26;101066.38;5112749;28;8773;-69
2022/04/22 00:05:44;;;;;;;;;1.50;1.50;;;;;19.86;46.34;101076.97;5111544;28;8781;-69
2022/04/22 00:08:09;;;;;;;;;1.25;1.25;;;;;19.87;46.35;101071.63;5110561;28;8769;-69
2022/04/22 00:10:34;;;;;;;;;2.00;1.00;;;;;19.85;46.28;101076.09;5110409;28;9486;-68
2022/04/22 00:13:00;;;;;;;;;2.50;2.00;;;;;19.85;46.11;101072.56;5103919;28;10026;-69
2022/04/22 00:15:26;;;;;;;;;1.25;1.25;;;;;19.83;46.26;101072.59;5089404;28;8764;-68
2022/04/22 00:17:51;;;;;;;;;1.75;1.75;;;;;19.84;46.29;101079.63;5089422;28;9511;-69
2022/04/22 00:20:17;;;;;;;;;2.50;2.50;;;;;19.83;46.07;101079.66;5089879;28;8807;-69
2022/04/22 00:22:44;;;;;;;;;2.25;2.25;;;;;19.83;46.35;101080.53;5089192;28;8771;-69
2022/04/22 00:25:13;;;;;;;;;2.00;2.00;;;;;19.82;46.29;101075.25;5089912;28;8798;-69
2022/04/22 00:27:39;;;;;;;;;2.75;2.75;;;;;19.83;46.30;101071.72;5089691;28;9684;-69
2022/04/22 00:30:10;;;;;;;;;1.50;1.50;;;;;19.83;46.24;101069.06;5088541;28;9606;-69
2022/04/22 00:32:36;;;;;;;;;1.00;1.00;;;;;19.82;46.24;101067.31;5089918;28;9539;-68
2022/04/22 00:35:03;;;;;;;;;1.50;1.50;;;;;19.81;46.17;101073.50;5089579;28;10205;-69
2022/04/22 00:37:28;;;;;;;;;2.50;2.25;;;;;19.81;46.31;101077.03;5089030;28;9546;-68
2022/04/22 00:39:53;;;;;;;;;1.00;1.00;;;;;19.79;46.11;101074.38;5089570;28;9560;-68
2022/04/22 00:42:18;;;;;;;;;2.00;2.00;;;;;19.81;46.08;101073.50;5089416;28;8908;-69
2022/04/22 00:44:44;;;;;;;;;3.00;2.00;;;;;19.80;46.20;101067.31;5088878;28;8792;-69
2022/04/22 00:47:09;;;;;;;;;3.00;3.00;;;;;19.79;45.98;101065.59;5089664;28;8884;-69
2022/04/22 00:49:34;;;;;;;;;1.00;1.00;;;;;19.79;46.28;101057.63;5089846;28;8796;-71
2022/04/22 00:52:02;;;;;;;;;1.00;1.00;;;;;19.78;46.52;101067.34;5088961;28;8824;-69
2022/04/22 00:54:27;;;;;;;;;1.00;1.00;;;;;19.77;46.25;101057.63;5089699;28;8828;-70
2022/04/22 00:56:53;;;;;;;;;1.00;1.00;;;;;19.76;46.06;101058.53;5089301;28;9393;-70
2022/04/22 00:59:19;;;;;;;;;2.00;2.00;;;;;19.76;46.14;101053.22;5088899;28;8775;-69
2022/04/22 01:01:44;;;;;;;;;2.00;2.00;;;;;19.76;46.19;101039.97;5101106;28;8800;-68
2022/04/22 01:09:53;;;;;;;;;1.75;1.75;;;;;19.73;46.27;101047.09;5109905;28;9303;-69
2022/04/22 01:12:19;;;;;;;;;3.00;2.00;;;;;19.75;45.98;101038.25;5108585;28;9421;-70
2022/04/22 01:14:46;;;;;;;;;2.25;2.00;;;;;19.74;46.11;101035.59;5089372;28;9526;-70
2022/04/22 01:17:14;;;;;;;;;1.00;1.00;;;;;19.73;46.04;101045.31;5089499;28;9473;-70
2022/04/22 01:19:40;;;;;;;;;0.50;0.50;;;;;19.74;46.11;101038.25;5088932;28;9497;-70
2022/04/22 01:22:05;;;;;;;;;2.00;2.00;;;;;19.72;46.14;101035.63;5093067;28;10174;-70
2022/04/22 01:24:31;;;;;;;;;1.50;1.50;;;;;19.72;46.14;101032.97;5093205;28;8771;-68
2022/04/22 01:26:57;;;;;;;;;1.25;1.00;;;;;19.71;45.86;101025.06;5092327;28;8792;-68
2022/04/22 01:29:23;;;;;;;;;1.75;1.75;;;;;19.73;46.19;101028.56;5093588;28;9561;-69
2022/04/22 01:31:48;;;;;;;;;1.00;1.00;;;;;19.71;46.16;101022.41;5092679;28;11535;-69
2022/04/22 01:34:14;;;;;;;;;2.25;2.25;;;;;19.71;46.06;101028.59;5092221;28;8770;-68
2022/04/22 01:36:39;;;;;;;;;1.00;1.00;;;;;19.70;46.13;101024.19;5092732;28;8836;-68
2022/04/22 01:39:04;;;;;;;;;1.00;1.00;;;;;19.71;46.20;101033.00;5092714;28;8783;-69
2022/04/22 01:41:30;;;;;;;;;1.00;1.00;;;;;19.71;46.19;101033.00;5091920;28;8788;-69
2022/04/22 01:43:59;;;;;;;;;2.25;2.00;;;;;19.70;46.17;101029.47;5092625;28;8752;-68
2022/04/22 01:46:24;;;;;;;;;1.50;1.50;;;;;19.69;46.21;101030.38;5092115;28;9548;-69
2022/04/22 01:48:49;;;;;;;;;1.33;1.33;;;;;19.68;46.10;101025.94;5092187;28;9469;-69
2022/04/22 01:51:18;;;;;;;;;2.00;2.00;;;;;19.68;46.27;101028.59;5092248;28;8831;-69
2022/04/22 01:53:43;;;;;;;;;2.00;2.00;;;;;19.70;46.21;101026.81;5091634;28;8857;-69
2022/04/22 01:56:08;;;;;;;;;1.25;1.25;;;;;19.68;46.25;101027.75;5092616;28;9342;-69
2022/04/22 01:58:34;;;;;;;;;1.00;1.00;;;;;19.67;46.23;101026.88;5092374;28;8841;-69
2022/04/22 02:00:59;;;;;;;;;2.00;2.00;;;;;19.66;46.16;101029.53;5097030;28;8778;-69
2022/04/22 02:03:24;;;;;;;;;3.50;3.00;;;;;19.68;46.09;101022.44;5112518;28;8817;-69
2022/04/22 02:05:50;;;;;;;;;1.00;1.00;;;;;19.67;46.06;101026.00;5112301;28;8816;-69
2022/04/22 02:08:15;;;;;;;;;1.00;1.00;;;;;19.66;46.08;101019.81;5111871;28;8794;-69
2022/04/22 02:10:41;;;;;;;;;1.00;1.00;;;;;19.66;46.19;101014.50;5112392;28;8824;-69
2022/04/22 02:13:08;;;;;;;;;2.00;2.00;;;;;19.65;46.03;101015.41;5105052;28;8861;-70
2022/04/22 02:15:33;;;;;;;;;2.25;1.50;;;;;19.66;46.03;101016.28;5091668;28;8775;-69
2022/04/22 02:18:01;;;;;;;;;1.00;1.00;;;;;19.65;46.16;101009.22;5091427;28;9727;-69
2022/04/22 02:20:26;;;;;;;;;2.00;2.00;;;;;19.64;46.10;101005.72;5092122;28;8775;-69
2022/04/22 02:22:52;;;;;;;;;1.00;1.00;;;;;19.64;46.17;101008.38;5090768;28;9562;-70
2022/04/22 02:25:17;;;;;;;;;2.00;2.00;;;;;19.64;46.26;101005.72;5091984;28;8810;-69
2022/04/22 02:30:27;;;;;;;;;1.25;1.25;;;;;19.62;46.21;101001.31;5090956;28;8815;-69
2022/04/22 02:32:52;;;;;;;;;2.00;2.00;;;;;19.63;46.02;101000.44;5090184;28;9333;-69
2022/04/22 02:35:21;;;;;;;;;2.75;2.25;;;;;19.62;46.26;100994.25;5091623;28;8788;-69
2022/04/22 02:37:49;;;;;;;;;1.00;1.00;;;;;19.61;46.15;100992.50;5090735;28;8787;-68
2022/04/22 02:45:26;;;;;;;;;1.00;1.00;;;;;19.60;46.22;100989.88;5091357;28;9564;-68
2022/04/22 02:45:49;;;;;;;;;3.00;3.00;;;;;19.60;46.25;100993.41;5091191;28;9629;-69
2022/04/22 02:48:15;;;;;;;;;2.25;2.25;;;;;19.59;46.07;100993.41;5091595;28;9641;-69
2022/04/22 02:50:40;;;;;;;;;2.00;2.00;;;;;19.60;46.22;100990.75;5090675;28;8823;-70
2022/04/22 02:53:05;;;;;;;;;3.00;2.00;;;;;19.59;46.09;100986.34;5091150;28;8779;-69
2022/04/22 02:55:31;;;;;;;;;1.00;1.00;;;;;19.57;46.08;100982.84;5091220;28;8807;-69
2022/04/22 02:57:57;;;;;;;;;1.00;1.00;;;;;19.58;46.05;100986.38;5090190;28;8812;-69
2022/04/22 03:00:23;;;;;;;;;1.00;1.00;;;;;19.59;46.08;100985.47;5091593;28;9394;-70
2022/04/22 03:02:48;;;;;;;;;2.00;2.00;;;;;19.57;46.15;100982.84;5111215;28;8750;-69
2022/04/22 03:05:16;;;;;;;;;2.00;2.00;;;;;19.58;46.20;100983.72;5110766;28;8769;-70
2022/04/22 03:07:42;;;;;;;;;2.00;1.00;;;;;19.58;46.14;100984.59;5111610;28;8850;-69
2022/04/22 03:10:07;;;;;;;;;1.75;1.75;;;;;19.57;46.17;100987.28;5110930;28;9594;-69
2022/04/22 03:12:34;;;;;;;;;1.00;1.00;;;;;19.57;46.11;100982.84;5108180;28;8774;-69
2022/04/22 03:15:00;;;;;;;;;1.75;1.00;;;;;19.57;46.38;100979.34;5090813;28;8788;-69
2022/04/22 03:17:25;;;;;;;;;1.00;1.00;;;;;19.56;46.42;100985.53;5090429;28;9443;-69
2022/04/22 03:19:51;;;;;;;;;1.00;1.00;;;;;19.55;46.27;100987.28;5089549;28;8780;-68
2022/04/22 03:22:16;;;;;;;;;2.25;2.00;;;;;19.54;46.33;100985.53;5090761;28;8792;-68
2022/04/22 03:24:42;;;;;;;;;2.25;2.25;;;;;19.56;46.26;100980.22;5090580;28;8949;-68
2022/04/22 03:27:07;;;;;;;;;1.00;1.00;;;;;19.54;46.31;100982.88;5089908;28;8800;-69
2022/04/22 03:29:35;;;;;;;;;1.00;1.00;;;;;19.57;46.66;100984.63;5090572;28;10199;-68
2022/04/22 03:32:00;;;;;;;;;1.33;1.33;;;;;19.56;46.52;100977.56;5089517;28;8839;-68
2022/04/22 03:34:25;;;;;;;;;2.50;2.50;;;;;19.54;46.39;100974.06;5090708;28;9551;-69
2022/04/22 03:36:51;;;;;;;;;1.00;1.00;;;;;19.54;46.67;100982.00;5090133;28;8832;-69
2022/04/22 03:39:16;;;;;;;;;2.00;2.00;;;;;19.52;46.37;100973.22;5089858;28;8784;-69
2022/04/22 03:41:41;;;;;;;;;3.50;2.50;;;;;19.53;46.47;100977.63;5090251;28;8799;-70
2022/04/22 03:44:07;;;;;;;;;1.00;1.00;;;;;19.53;46.38;100969.69;5088582;28;8800;-69
2022/04/22 03:46:32;;;;;;;;;0.75;0.75;;;;;19.51;46.24;100969.69;5089516;28;8764;-69
2022/04/22 03:49:00;;;;;;;;;1.00;1.00;;;;;19.52;46.57;100966.16;5090052;28;8795;-70
2022/04/22 03:51:26;;;;;;;;;1.75;1.75;;;;;19.51;46.76;100969.69;5090322;28;8807;-69
2022/04/22 03:53:52;;;;;;;;;1.00;1.00;;;;;19.50;46.62;100970.56;5089300;28;9447;-69
2022/04/22 03:59:02;;;;;;;;;1.00;1.00;;;;;19.51;46.34;100974.09;5089878;28;8776;-69
2022/04/22 04:01:27;;;;;;;;;2.00;2.00;;;;;19.51;46.37;100966.16;5098981;28;9486;-69
2022/04/22 04:03:52;;;;;;;;;2.50;2.50;;;;;19.50;46.35;100969.69;5110526;28;9514;-69
2022/04/22 04:06:18;;;;;;;;;1.25;1.25;;;;;19.49;46.35;100971.50;5110697;28;8948;-69
2022/04/22 04:15:57;;;;;;;;;1.50;1.50;;;;;19.48;46.47;100972.38;5109707;28;8800;-69
2022/04/22 04:16:56;;;;;;;;;1.75;1.75;;;;;19.49;46.26;100967.97;5089378;28;9503;-69
2022/04/22 04:24:49;;;;;;;;;3.25;3.00;;;;;19.46;46.30;100968.00;5089329;28;9585;-69
2022/04/22 04:27:14;;;;;;;;;1.75;1.25;;;;;19.45;46.30;100969.78;5089801;28;9552;-69
2022/04/22 04:29:40;;;;;;;;;1.25;1.25;;;;;19.48;46.46;100974.16;5088915;28;8792;-69
2022/04/22 04:32:06;;;;;;;;;1.25;1.00;;;;;19.45;46.48;100976.84;5089480;28;8943;-69
2022/04/22 04:34:34;;;;;;;;;2.00;1.00;;;;;19.45;46.32;100969.78;5089912;28;8968;-69
2022/04/22 04:36:59;;;;;;;;;2.00;1.00;;;;;19.44;46.44;100970.66;5088486;28;9454;-69
2022/04/22 04:39:24;;;;;;;;;1.00;1.00;;;;;19.42;46.36;100972.44;5089590;28;9554;-69
2022/04/22 04:41:50;;;;;;;;;2.00;2.00;;;;;19.45;46.64;100976.84;5089257;28;8830;-70
2022/04/22 04:44:15;;;;;;;;;1.00;1.00;;;;;19.45;46.55;100972.44;5088911;28;9544;-69
2022/04/22 04:46:40;;;;;;;;;1.75;1.75;;;;;19.44;46.43;100975.06;5089458;28;8784;-70
2022/04/22 04:49:14;;;;;;;;;1.75;0.75;;;;;19.44;46.33;100980.38;5089194;28;8776;-69
2022/04/22 04:51:40;;;;;;;;;0.50;0.50;;;;;19.45;46.51;100984.78;5089779;28;8815;-69
2022/04/22 04:54:05;;;;;;;;;2.00;2.00;;;;;19.44;46.44;100981.25;5089440;28;9445;-69
2022/04/22 04:56:30;;;;;;;;;1.75;1.00;;;;;19.45;46.50;101001.56;5092139;28;8796;-69
2022/04/22 04:58:56;;;;;;;;;2.00;2.00;;;;;19.43;46.27;100989.22;5093324;28;8946;-69
2022/04/22 05:01:21;;;;;;;;;2.00;2.00;;;;;19.42;46.34;100980.38;5102274;28;8930;-69
2022/04/22 05:03:49;;;;;;;;;1.00;1.00;;;;;19.43;46.27;100981.25;5113225;28;8789;-69
2022/04/22 05:06:15;;;;;;;;;1.00;1.00;;;;;19.42;46.47;100976.88;5114410;28;8781;-69
2022/04/22 05:08:40;;;;;;;;;2.00;2.00;;;;;19.41;46.27;100973.31;5113938;28;9491;-69
2022/04/22 05:11:05;;;;;;;;;3.50;2.00;;;;;19.38;46.34;100965.41;5112620;28;11512;-69
2022/04/22 05:13:31;;;;;;;;;1.75;1.75;;;;;19.41;46.64;100972.44;5102924;28;8828;-69
2022/04/22 05:15:57;;;;;;;;;2.00;1.00;;;;;19.42;46.57;100979.53;5093147;28;8764;-69
2022/04/22 05:18:22;;;;;;;;;2.00;1.00;;;;;19.41;46.45;100975.97;5092423;28;8902;-70
2022/04/22 05:20:48;;;;;;;;;2.00;2.00;;;;;19.43;46.47;100989.22;5092944;28;9582;-69
2022/04/22 05:23:13;;;;;;;;;1.75;1.75;;;;;19.42;46.53;100976.88;5093163;28;8959;-69
2022/04/22 05:25:39;;;;;;;;;1.75;1.00;;;;;19.40;46.80;100976.84;5074118;28;8799;-69
2022/04/22 05:28:13;;;;;;;;;1.00;1.00;;;;;19.40;46.48;100973.31;5092841;28;8776;-69
2022/04/22 05:33:22;;;;;;;;;1.00;1.00;;;;;19.39;46.34;100975.09;5092214;28;9721;-69
2022/04/22 05:35:48;;;;;;;;;1.00;1.00;;;;;19.40;46.37;100984.81;5092717;28;9462;-69
2022/04/22 05:38:15;;;;;;;;;0.00;0.00;;;;;19.39;46.47;100983.03;5093087;28;8797;-69
2022/04/22 05:40:41;;;;;;;;;2.00;2.00;;;;;19.41;46.42;100972.44;5092050;28;8810;-69
2022/04/22 05:43:07;;;;;;;;;1.25;1.00;;;;;19.40;46.55;100975.97;5092622;28;9715;-69
2022/04/22 05:45:33;;;;;;;;;1.25;1.25;;;;;19.38;46.48;100962.78;5092155;28;8923;-69
2022/04/22 05:48:00;;;;;;;;;1.25;1.25;;;;;19.40;46.42;100984.81;5092330;28;9542;-69
2022/04/22 05:50:26;;;;;;;;;1.00;1.00;;;;;19.41;46.48;100986.56;5092632;28;8888;-69
2022/04/22 05:52:52;;;;;;;;;1.00;1.00;;;;;19.40;46.63;100978.63;5091493;28;10235;-69
2022/04/22 05:55:20;;;;;;;;;1.00;0.25;;;;;19.40;46.51;100984.81;5092302;28;9508;-70
2022/04/22 05:57:47;;;;;;;;;0.00;0.00;;;;;19.42;46.55;100982.19;5092136;28;8759;-70
2022/04/22 06:00:16;;;;;;;;;1.00;1.00;;;;;19.39;46.27;100985.69;5091596;28;9616;-70
2022/04/22 06:02:42;;;;;;;;;2.00;2.00;;;;;19.45;46.39;100982.13;5111886;28;9418;-69
2022/04/22 06:05:13;;;;;;;;;1.00;1.00;;;;;19.44;46.23;100981.25;5112151;28;9377;-70
2022/04/22 06:07:40;;;;;;;;;2.00;2.00;;;;;19.46;46.23;100990.03;5111607;28;9324;-70
2022/04/22 06:12:54;;;;;;;;;2.00;2.00;;;;;19.51;46.18;100980.28;5105415;28;9609;-70
2022/04/22 06:15:20;;;;;;;;;1.00;1.00;;;;;19.53;46.52;100974.97;5091306;28;9608;-70
2022/04/22 06:17:46;;;;;;;;;1.00;1.00;;;;;19.52;46.26;100968.78;5090830;28;8991;-69
2022/04/22 06:20:11;;;;;;;;;1.50;1.50;;;;;19.54;46.27;100979.34;5091644;28;9581;-70
2022/04/22 06:22:37;;;;;;;;;2.75;2.75;;;;;19.52;46.54;100967.91;5090779;28;9352;-70
2022/04/22 06:25:02;;;;;;;;;1.25;1.25;;;;;19.54;46.49;100976.69;5091590;28;8808;-69
2022/04/22 06:27:37;;;;;;;;;1.00;1.00;;;;;19.53;46.34;100969.69;5089697;28;8776;-70
2022/04/22 06:30:16;;;;;;;;;2.00;1.00;;;;;19.52;46.58;100968.78;5090566;28;8815;-70
2022/04/22 06:32:46;;;;;;;;;1.00;1.00;;;;;19.53;46.67;100964.38;5091462;28;9607;-69
2022/04/22 06:35:13;;;;;;;;;2.00;2.00;;;;;19.55;47.03;100963.44;5108439;28;10268;-69
2022/04/22 06:37:44;;;;;;;;;2.00;2.00;;;;;19.66;50.50;100956.25;5112068;28;9458;-69
2022/04/22 06:45:49;;;;;;;;;2.00;2.00;;;;;19.94;53.95;100951.44;5111761;28;9519;-68
2022/04/22 06:48:18;;;;;;;;;3.00;3.00;;;;;20.04;54.63;100957.44;5111679;28;9624;-69
2022/04/22 06:50:53;;;;;;;;;4.00;4.00;;;;;20.13;56.71;100944.06;5110727;28;9685;-69
2022/04/22 06:53:19;;;;;;;;;3.00;3.00;;;;;20.19;58.13;100955.44;5111730;28;9604;-70
2022/04/22 06:55:48;;;;;;;;;4.75;3.00;;;;;20.25;57.54;100951.78;5111378;28;9555;-69
2022/04/22 06:58:20;;;;;;;;;4.50;3.25;;;;;20.31;60.03;100957.06;5111574;28;9635;-70
2022/04/22 07:00:48;;;;;;;;;5.50;3.25;;;;;20.34;61.92;100956.13;5107869;28;9540;-68
2022/04/22 07:03:15;;;;;;;;;5.25;3.50;;;;;20.40;63.02;100956.88;5090222;28;10149;-69
2022/04/22 07:05:42;;;;;;;;;4.00;4.00;;;;;20.40;63.11;100956.00;5091151;28;9558;-69
2022/04/22 07:08:14;;;;;;;;;6.50;5.00;;;;;20.39;64.21;100949.84;5090584;28;9532;-69
2022/04/22 07:10:41;;;;;;;;;6.50;5.00;;;;;20.35;64.85;100966.72;5090303;28;9670;-75
2022/04/22 07:13:07;;;;;;;;;1.75;1.75;;;;;20.40;63.62;100956.88;5098011;28;10245;-72
2022/04/22 07:15:32;;;;;;;;;5.50;5.00;;;;;20.44;64.69;100957.69;5111386;28;9622;-70
2022/04/22 07:17:58;;;;;;;;;5.50;5.00;;;;;20.39;63.53;100960.47;5109492;28;9639;-70
2022/04/22 07:20:23;;;;;;;;;7.00;6.00;;;;;20.34;65.30;100964.06;5111259;28;9528;-72
2022/04/22 07:22:53;;;;;;;;;4.50;4.50;;;;;20.28;65.39;100965.06;5111023;28;8797;-73
2022/04/22 07:25:20;;;;;;;;;5.75;4.75;;;;;20.26;64.87;100959.75;5110216;28;8796;-71
2022/04/22 07:27:46;;;;;;;;;4.25;4.25;;;;;20.22;64.67;100955.38;5110584;28;9675;-72
2022/04/22 07:30:14;;;;;;;;;6.00;4.75;;;;;20.20;65.06;100949.25;5110857;28;9677;-71
2022/04/22 07:32:40;;;;;;;;;8.00;5.25;;;;;20.21;64.27;100950.09;5110190;28;9528;-72
2022/04/22 07:35:13;;;;;;;;;9.25;5.00;;;;;20.19;64.76;100952.78;5109744;28;9685;-72
2022/04/22 07:37:43;;;;;;;;;5.50;4.00;;;;;20.19;63.53;100950.13;5096237;28;9813;-72
2022/04/22 07:40:09;;;;;;;;;3.25;3.00;;;;;20.16;63.64;100952.84;5089139;28;9536;-73
2022/04/22 07:42:36;;;;;;;;;5.00;4.75;;;;;20.15;63.05;100951.09;5090848;28;9701;-72
2022/04/22 07:47:47;;;;;;;;;6.50;4.50;;;;;20.14;63.05;100948.44;5090216;28;9605;-73
2022/04/22 07:50:18;;;;;;;;;4.25;4.25;;;;;20.14;62.63;100946.69;5088866;28;10510;-72
2022/04/22 07:52:44;;;;;;;;;5.00;5.00;;;;;20.14;62.20;100954.63;5090316;28;8764;-73
2022/04/22 07:55:12;;;;;;;;;5.25;4.75;;;;;20.13;61.81;100942.25;5090933;28;9783;-74
2022/04/22 07:57:39;;;;;;;;;9.25;6.75;;;;;20.11;61.46;100949.38;5090735;28;9889;-73
2022/04/22 08:00:05;;;;;;;;;7.75;4.75;;;;;20.12;61.26;100947.59;5088111;28;9795;-72
2022/04/22 08:02:31;;;;;;;;;4.00;4.00;;;;;20.11;60.81;100951.16;5108752;28;9865;-73
2022/04/22 08:04:56;;;;;;;;;6.75;6.00;;;;;20.10;60.31;100946.75;5110840;28;11406;-72
2022/04/22 08:07:21;;;;;;;;;8.50;7.00;;;;;20.10;60.01;100944.09;5098660;28;8792;-72
2022/04/22 08:09:47;;;;;;;;;4.00;4.00;;;;;20.11;59.97;100943.19;5088517;28;8842;-72
2022/04/22 08:12:13;;;;;;;;;5.00;4.00;;;;;20.10;59.34;100950.28;5090438;28;8795;-72
2022/04/22 08:14:39;;;;;;;;;4.25;4.25;;;;;20.10;58.80;100944.97;5089690;28;8788;-72
2022/04/22 08:17:05;;;;;;;;;6.75;6.75;;;;;20.10;58.53;100944.09;5089594;28;9707;-72
2022/04/22 08:19:30;;;;;;;;;5.00;5.00;;;;;20.09;58.19;100948.53;5088535;28;9878;-72
2022/04/22 08:21:58;;;;;;;;;3.75;3.75;;;;;20.12;58.05;100944.97;5089877;28;8791;-71
2022/04/22 08:24:24;;;;;;;;;4.25;4.25;;;;;20.10;57.73;100947.63;5090429;28;8771;-71
2022/04/22 08:26:58;;;;;;;;;4.50;4.50;;;;;20.11;57.64;100937.91;5090098;28;9977;-71
2022/04/22 08:29:23;;;;;;;;;4.25;4.25;;;;;20.09;57.14;100935.28;5089712;28;8804;-71
2022/04/22 08:31:52;;;;;;;;;4.00;4.00;;;;;20.10;57.25;100947.63;5094291;28;9697;-72
2022/04/22 08:34:17;;;;;;;;;5.00;5.00;;;;;20.09;56.83;100930.00;5098399;28;8796;-72
2022/04/22 08:36:43;;;;;;;;;4.00;4.00;;;;;20.11;56.46;100937.91;5094594;28;9631;-71
2022/04/22 08:39:09;;;;;;;;;5.50;5.50;;;;;20.09;56.15;100915.84;5094815;28;8783;-71
2022/04/22 08:41:37;;;;;;;;;5.00;5.00;;;;;20.10;55.53;100921.13;5092573;28;9799;-71
2022/04/22 08:44:04;;;;;;;;;6.00;6.00;;;;;20.09;56.04;100918.50;5094236;28;8768;-71
2022/04/22 08:52:00;;;;;;;;;6.00;5.00;;;;;20.09;54.82;100911.44;5092867;28;10425;-71
2022/04/22 08:54:27;;;;;;;;;7.00;5.75;;;;;20.08;54.47;100899.06;5094160;28;9828;-70
2022/04/22 08:56:54;;;;;;;;;5.00;5.00;;;;;20.10;53.86;100899.91;5092741;28;9804;-71
2022/04/22 08:59:25;;;;;;;;;6.50;5.50;;;;;20.10;53.81;100899.03;5094090;28;9772;-72
2022/04/22 09:01:51;;;;;;;;;8.00;7.00;;;;;20.09;54.01;100895.53;5104313;28;9733;-71
2022/04/22 09:04:16;;;;;;;;;5.00;5.00;;;;;20.11;53.22;100899.00;5113306;28;9786;-71
2022/04/22 09:06:45;;;;;;;;;4.75;4.75;;;;;20.13;52.45;100894.56;5113938;28;8885;-72
2022/04/22 09:09:12;;;;;;;;;6.00;5.00;;;;;20.14;52.01;100893.66;5114095;28;9195;-71
2022/04/22 09:11:38;;;;;;;;;6.00;5.50;;;;;20.12;53.04;100884.88;5113287;28;9716;-72
2022/04/22 09:14:06;;;;;;;;;6.25;5.00;;;;;20.12;52.88;100881.34;5098475;28;9659;-71
2022/04/22 09:16:32;;;;;;;;;5.50;5.50;;;;;20.12;52.97;100882.22;5092516;28;8796;-70
2022/04/22 09:19:00;;;;;;;;;5.25;5.25;;;;;20.13;52.74;100888.41;5092830;28;9829;-70
2022/04/22 09:21:31;;;;;;;;;4.00;4.00;;;;;20.01;52.92;100870.03;5093126;28;8792;-71
2022/04/22 09:24:10;;;;;;;;;6.00;6.00;;;;;20.13;52.64;100883.09;5092171;28;9754;-71
2022/04/22 09:26:35;;;;;;;;;5.50;5.50;;;;;20.14;52.54;100876.88;5093022;28;9803;-70
2022/04/22 09:29:04;;;;;;;;;4.25;3.00;;;;;20.13;52.49;100875.16;5092502;28;9864;-71
2022/04/22 09:31:30;;;;;;;;;6.00;6.00;;;;;20.14;52.52;100880.41;5092181;28;8851;-71
2022/04/22 09:33:56;;;;;;;;;4.00;4.00;;;;;20.14;52.36;100867.16;5092471;28;10445;-71
2022/04/22 09:44:57;;;;;;;;;5.00;5.00;;;;;20.18;51.69;100857.38;5091792;28;10803;-70
2022/04/22 09:47:33;;;;;;;;;5.50;4.75;;;;;20.17;51.48;100867.09;5092772;28;10398;-70
2022/04/22 09:50:00;;;;;;;;;4.75;4.75;;;;;20.17;51.43;100859.13;5092226;28;10508;-71
2022/04/22 09:52:45;;;;;;;;;5.50;4.50;;;;;20.20;51.40;100861.75;5091694;28;9882;-71
2022/04/22 09:55:21;;;;;;;;;5.00;5.00;;;;;20.20;51.34;100855.56;5092404;28;9852;-71
2022/04/22 09:57:58;;;;;;;;;3.25;3.25;;;;;20.22;50.91;100851.09;5092208;28;9704;-71
2022/04/22 10:00:26;;;;;;;;;9.50;7.00;;;;;20.21;51.19;100846.69;5091924;28;9699;-71
2022/04/22 10:02:53;;;;;;;;;5.00;4.00;;;;;20.23;50.98;100847.56;5112543;28;9733;-71
2022/04/22 10:05:24;;;;;;;;;3.75;3.75;;;;;20.22;50.72;100844.03;5112641;28;10452;-71
2022/04/22 10:07:52;;;;;;;;;6.25;5.00;;;;;20.23;50.85;100837.84;5111580;28;9696;-70
2022/04/22 10:10:22;;;;;;;;;3.25;3.25;;;;;20.25;50.70;100846.63;5112751;28;9874;-71
2022/04/22 10:12:49;;;;;;;;;4.75;4.75;;;;;20.24;50.71;100839.56;5106797;28;9903;-71
2022/04/22 10:15:17;;;;;;;;;4.25;4.25;;;;;20.24;50.43;100836.91;5091992;28;9791;-69
2022/04/22 10:17:44;;;;;;;;;4.00;4.00;;;;;20.27;50.51;100833.34;5091863;28;9654;-71
2022/04/22 10:20:10;;;;;;;;;4.50;4.50;;;;;20.27;50.64;100838.66;5091419;28;9817;-72
2022/04/22 10:22:37;;;;;;;;;6.75;4.75;;;;;20.27;50.29;100830.69;5092221;28;9704;-72
2022/04/22 10:25:04;;;;;;;;;4.00;4.00;;;;;20.27;50.28;100818.31;5091536;28;9704;-71
2022/04/22 10:27:40;;;;;;;;;5.00;3.00;;;;;20.31;50.21;100831.56;5091327;28;9617;-71
2022/04/22 10:30:11;;;;;;;;;6.00;5.00;;;;;20.32;50.07;100825.34;5091153;28;9688;-71
2022/04/22 10:32:40;;;;;;;;;5.75;5.75;;;;;20.32;50.05;100823.53;5090323;28;9697;-72
2022/04/22 10:35:09;;;;;;;;;4.75;4.50;;;;;20.34;50.06;100831.50;5090760;28;9709;-71
2022/04/22 10:37:38;;;;;;;;;4.50;4.50;;;;;20.31;50.01;100820.94;5091800;28;9842;-71
2022/04/22 10:40:05;;;;;;;;;5.75;4.50;;;;;20.34;49.81;100824.41;5091142;28;9760;-71
2022/04/22 10:42:34;;;;;;;;;5.00;5.00;;;;;20.36;49.71;100825.25;5091023;28;9549;-72
2022/04/22 10:47:56;;;;;;;;;4.00;4.00;;;;;20.36;49.76;100822.59;5090970;28;9665;-72
2022/04/22 10:50:41;;;;;;;;;3.50;3.50;;;;;20.35;49.56;100826.16;5091328;28;9632;-71
2022/04/22 10:53:09;;;;;;;;;5.00;5.00;;;;;20.35;49.72;100834.13;5089994;28;9589;-71
2022/04/22 10:55:41;;;;;;;;;3.00;3.00;;;;;20.36;49.61;100827.88;5090407;28;10474;-71
2022/04/22 10:58:12;;;;;;;;;3.50;3.50;;;;;20.37;49.46;100826.13;5090780;28;9534;-71
2022/04/22 11:00:41;;;;;;;;;4.25;4.25;;;;;20.38;49.63;100822.56;5093495;28;9696;-71
2022/04/22 11:03:22;;;;;;;;;5.50;4.75;;;;;20.39;49.55;100814.59;5110727;28;9678;-71
2022/04/22 11:05:54;;;;;;;;;3.25;3.25;;;;;20.38;49.49;100815.50;5111554;28;9743;-72
2022/04/22 11:08:24;;;;;;;;;5.75;5.00;;;;;20.39;49.44;100803.13;5111636;28;9626;-71
2022/04/22 11:10:49;;;;;;;;;5.75;5.75;;;;;20.40;49.59;100810.16;5110314;28;9621;-71
2022/04/22 11:13:31;;;;;;;;;5.00;5.00;;;;;20.41;49.29;100799.53;5102904;28;9747;-72
2022/04/22 11:15:58;;;;;;;;;4.25;4.25;;;;;20.43;49.42;100796.84;5090330;28;8840;-70
2022/04/22 11:18:23;;;;;;;;;4.75;4.75;;;;;20.44;49.30;100798.56;5088838;28;9684;-71
2022/04/22 11:20:59;;;;;;;;;7.00;5.00;;;;;20.46;49.23;100796.78;5090527;28;9773;-71
2022/04/22 11:23:33;;;;;;;;;7.00;5.75;;;;;20.44;49.32;100791.50;5090337;28;8780;-71
2022/04/22 11:26:00;;;;;;;;;5.75;5.75;;;;;20.45;49.34;100781.78;5090626;28;9604;-71
2022/04/22 11:28:26;;;;;;;;;4.25;4.25;;;;;20.46;49.09;100788.84;5090819;28;9786;-71
2022/04/22 11:30:53;;;;;;;;;3.25;3.25;;;;;20.46;49.12;100783.53;5089585;28;9660;-71
2022/04/22 11:33:29;;;;;;;;;6.00;5.00;;;;;20.50;49.19;100778.13;5090678;28;9688;-70
2022/04/22 11:35:58;;;;;;;;;4.75;4.75;;;;;20.47;49.10;100786.13;5090644;28;10403;-71
2022/04/22 11:38:24;;;;;;;;;5.00;4.00;;;;;20.50;49.28;100782.56;5090265;28;9614;-71
2022/04/22 11:40:49;;;;;;;;;4.75;4.75;;;;;20.50;49.02;100779.91;5091153;28;9689;-71
2022/04/22 11:43:20;;;;;;;;;4.00;4.00;;;;;20.51;49.07;100777.22;5091166;28;11366;-71
2022/04/22 11:45:50;;;;;;;;;5.00;5.00;;;;;20.54;49.04;100776.28;5089805;28;9526;-71
2022/04/22 11:48:22;;;;;;;;;4.75;4.75;;;;;20.52;49.01;100763.06;5090912;28;9610;-71
2022/04/22 11:50:48;;;;;;;;;4.25;4.25;;;;;20.54;49.03;100774.53;5090281;28;9812;-70
2022/04/22 11:53:22;;;;;;;;;4.00;4.00;;;;;20.54;48.90;100779.81;5090121;28;9527;-70
2022/04/22 11:55:48;;;;;;;;;3.75;3.75;;;;;20.54;48.83;100777.16;5090572;28;8890;-70
2022/04/22 11:58:16;;;;;;;;;5.00;5.00;;;;;20.55;48.83;100778.91;5090515;28;10338;-71
2022/04/22 12:06:15;;;;;;;;;4.25;3.00;;;;;20.57;48.75;100773.56;5110211;28;9690;-71
2022/04/22 12:09:00;;;;;;;;;5.25;4.00;;;;;20.60;48.53;100765.53;5111236;28;9709;-71
2022/04/22 12:11:26;;;;;;;;;3.50;3.50;;;;;20.60;48.69;100760.25;5111152;28;8802;-71
2022/04/22 12:13:53;;;;;;;;;4.50;4.25;;;;;20.60;48.60;100757.59;5096520;28;9543;-71
2022/04/22 12:16:21;;;;;;;;;4.00;4.00;;;;;20.61;48.35;100756.69;5090723;28;9805;-71
2022/04/22 12:18:50;;;;;;;;;5.25;3.50;;;;;20.61;48.26;100749.59;5090122;28;9647;-71
2022/04/22 12:21:20;;;;;;;;;4.00;4.00;;;;;20.64;48.25;100748.66;5089693;28;9711;-70
2022/04/22 12:23:47;;;;;;;;;5.25;5.25;;;;;20.64;48.26;100751.31;5090369;28;9690;-71
2022/04/22 12:26:19;;;;;;;;;5.00;4.00;;;;;20.63;48.12;100742.47;5090495;28;9769;-70
2022/04/22 12:29:01;;;;;;;;;4.00;4.00;;;;;20.64;47.94;100735.41;5089508;28;10461;-71
2022/04/22 12:31:30;;;;;;;;;3.25;3.25;;;;;20.68;47.72;100742.38;5090535;28;9704;-71
2022/04/22 12:34:06;;;;;;;;;3.50;3.25;;;;;20.64;47.70;100728.31;5089352;28;9552;-70